PHTNN EGJJ-EGJB

Flight info

Callsign PHTNN
Flight time 0h 19m
Altitude 4000
Route SHARK DCT CF09
Aircraft C400/L-SDGRY/S

Departure

Time 2026-04-24 20:00
Airport Jersey Airport (EGJJ)

Arrival

Time 2026-04-24 20:19
Airport Guernsey Airport (EGJB)
Time Latitude Longitude Altitude Speed Heading
2026-04-24 19:37 49.20497 -2.19733 276 ft 0 kts 352°
2026-04-24 19:54 49.20484 -2.19731 276 ft 2 kts 352°
2026-04-24 19:55 49.20474 -2.19728 276 ft 2 kts 351°
2026-04-24 19:55 49.20452 -2.19720 276 ft 2 kts 338°
2026-04-24 19:55 49.20444 -2.19706 276 ft 1 kts 279°
2026-04-24 19:55 49.20444 -2.19705 276 ft 0 kts 277°
2026-04-24 19:57 49.20441 -2.19744 276 ft 12 kts 263°
2026-04-24 19:57 49.20435 -2.19886 275 ft 12 kts 290°
2026-04-24 19:57 49.20503 -2.19930 275 ft 9 kts 319°
2026-04-24 19:57 49.20526 -2.20031 275 ft 12 kts 288°
2026-04-24 19:58 49.20587 -2.20089 275 ft 11 kts 351°
2026-04-24 19:58 49.20640 -2.20101 275 ft 0 kts 356°
2026-04-24 19:58 49.20664 -2.20104 275 ft 14 kts 355°
2026-04-24 19:59 49.20757 -2.20047 274 ft 19 kts 83°
2026-04-24 19:59 49.20793 -2.19601 277 ft 72 kts 82°
2026-04-24 19:59 49.20861 -2.18632 438 ft 106 kts 83°
2026-04-24 19:59 49.20919 -2.17458 841 ft 107 kts 83°
2026-04-24 20:00 49.20978 -2.16302 1234 ft 114 kts 86°
2026-04-24 20:00 49.21048 -2.15064 1589 ft 120 kts 84°
2026-04-24 20:00 49.21218 -2.13719 1851 ft 129 kts 80°
2026-04-24 20:00 49.21353 -2.12346 2150 ft 139 kts 84°
2026-04-24 20:01 49.21522 -2.10780 2157 ft 157 kts 83°
2026-04-24 20:01 49.21689 -2.09203 2159 ft 141 kts 84°
2026-04-24 20:01 49.21954 -2.07822 2159 ft 135 kts 58°
2026-04-24 20:01 49.22807 -2.07244 2161 ft 144 kts
2026-04-24 20:02 49.23442 -2.07616 2162 ft 149 kts 324°
2026-04-24 20:02 49.23971 -2.09479 2167 ft 146 kts 280°
2026-04-24 20:02 49.24182 -2.10997 2175 ft 146 kts 280°
2026-04-24 20:02 49.24384 -2.12515 2173 ft 146 kts 280°
2026-04-24 20:03 49.24587 -2.14030 2167 ft 144 kts 280°
2026-04-24 20:03 49.24786 -2.15533 2168 ft 143 kts 281°
2026-04-24 20:03 49.24975 -2.17029 2165 ft 144 kts 281°
2026-04-24 20:03 49.25153 -2.18506 2178 ft 141 kts 279°
2026-04-24 20:04 49.25353 -2.19990 2175 ft 142 kts 280°
2026-04-24 20:04 49.25557 -2.21470 2178 ft 142 kts 281°
2026-04-24 20:04 49.25754 -2.22940 2187 ft 141 kts 281°
2026-04-24 20:04 49.25939 -2.24423 2174 ft 142 kts 280°
2026-04-24 20:05 49.26126 -2.25893 2175 ft 140 kts 281°
2026-04-24 20:05 49.26324 -2.27353 2177 ft 139 kts 280°
2026-04-24 20:05 49.26516 -2.28811 2183 ft 141 kts 281°
2026-04-24 20:05 49.26707 -2.30287 2185 ft 142 kts 279°
2026-04-24 20:06 49.26921 -2.31785 2175 ft 144 kts 281°
2026-04-24 20:06 49.27132 -2.33280 2174 ft 144 kts 281°
2026-04-24 20:06 49.27334 -2.34781 2181 ft 145 kts 280°
2026-04-24 20:06 49.27536 -2.36303 2180 ft 147 kts 279°
2026-04-24 20:07 49.27675 -2.37322 2186 ft 147 kts 280°
2026-04-24 20:07 49.27968 -2.39373 2188 ft 148 kts 281°
2026-04-24 20:07 49.28183 -2.40912 2185 ft 147 kts 281°
2026-04-24 20:07 49.28402 -2.42456 2189 ft 148 kts 280°
2026-04-24 20:08 49.28620 -2.43991 2190 ft 147 kts 282°
2026-04-24 20:08 49.29087 -2.45381 2178 ft 148 kts 301°
2026-04-24 20:08 49.29603 -2.46738 2177 ft 147 kts 300°
2026-04-24 20:08 49.30129 -2.48079 2176 ft 146 kts 300°
2026-04-24 20:09 49.30656 -2.49412 2176 ft 146 kts 300°
2026-04-24 20:09 49.31181 -2.50741 2174 ft 146 kts 301°
2026-04-24 20:09 49.31697 -2.52088 2174 ft 146 kts 300°
2026-04-24 20:09 49.32214 -2.53429 2178 ft 146 kts 300°
2026-04-24 20:10 49.32735 -2.54778 2180 ft 148 kts 300°
2026-04-24 20:10 49.33260 -2.56129 2184 ft 148 kts 300°
2026-04-24 20:10 49.33788 -2.57491 2187 ft 149 kts 300°
2026-04-24 20:10 49.34319 -2.58860 2190 ft 149 kts 300°
2026-04-24 20:11 49.34854 -2.60222 2183 ft 149 kts 300°
2026-04-24 20:11 49.35387 -2.61580 2179 ft 148 kts 300°
2026-04-24 20:11 49.35921 -2.62929 2179 ft 148 kts 300°
2026-04-24 20:11 49.36443 -2.64269 2183 ft 145 kts 301°
2026-04-24 20:12 49.36959 -2.65603 2184 ft 146 kts 300°
2026-04-24 20:12 49.37479 -2.66956 2179 ft 148 kts 300°
2026-04-24 20:12 49.37996 -2.68286 2169 ft 149 kts 301°
2026-04-24 20:12 49.38517 -2.69683 2039 ft 152 kts 287°
2026-04-24 20:13 49.38612 -2.71267 2000 ft 148 kts 270°
2026-04-24 20:13 49.38670 -2.72837 2000 ft 146 kts 270°
2026-04-24 20:13 49.38718 -2.74391 1995 ft 145 kts 270°
2026-04-24 20:13 49.38767 -2.75923 1989 ft 143 kts 269°
2026-04-24 20:14 49.38822 -2.77443 1988 ft 142 kts 270°
2026-04-24 20:14 49.38882 -2.78959 1982 ft 143 kts 270°
2026-04-24 20:14 49.39146 -2.80409 1979 ft 144 kts 307°
2026-04-24 20:14 49.40001 -2.81035 1976 ft 138 kts
2026-04-24 20:15 49.40785 -2.80388 1985 ft 128 kts 52°
2026-04-24 20:15 49.41436 -2.79440 1991 ft 129 kts 49°
2026-04-24 20:15 49.42082 -2.78484 1999 ft 130 kts 52°
2026-04-24 20:15 49.42732 -2.77491 1998 ft 133 kts 51°
2026-04-24 20:16 49.43201 -2.76341 1993 ft 124 kts 82°
2026-04-24 20:16 49.43283 -2.75055 1994 ft 120 kts 103°
2026-04-24 20:16 49.43153 -2.73777 1994 ft 121 kts 102°
2026-04-24 20:16 49.43034 -2.72493 1994 ft 122 kts 101°
2026-04-24 20:17 49.43134 -2.71182 1896 ft 130 kts 82°
2026-04-24 20:17 49.43231 -2.68424 1606 ft 122 kts 92°
2026-04-24 20:17 49.43311 -2.67154 1476 ft 119 kts 86°
2026-04-24 20:18 49.43358 -2.66295 1295 ft 125 kts 88°
2026-04-24 20:18 49.43373 -2.64584 879 ft 107 kts 88°
2026-04-24 20:18 49.43403 -2.63376 639 ft 118 kts 86°
2026-04-24 20:18 49.43434 -2.62085 433 ft 121 kts 86°
2026-04-24 20:19 49.43479 -2.60879 310 ft 107 kts 87°
2026-04-24 20:19 49.43506 -2.59968 316 ft 36 kts 89°
2026-04-24 20:19 49.43466 -2.59863 318 ft 6 kts 178°
2026-04-24 20:19 49.43434 -2.59861 318 ft 3 kts 171°
2026-04-24 20:20 49.43427 -2.59860 319 ft 0 kts 176°
2026-04-24 20:20 49.43426 -2.59860 319 ft 1 kts 178°
2026-04-24 20:20 49.43379 -2.59852 319 ft 9 kts 195°
2026-04-24 20:20 49.43348 -2.59779 320 ft 14 kts 81°
2026-04-24 20:21 49.43361 -2.59634 322 ft 13 kts 90°
2026-04-24 20:21 49.43367 -2.59524 324 ft 8 kts 93°
2026-04-24 20:21 49.43368 -2.59406 325 ft 13 kts 90°
2026-04-24 20:21 49.43372 -2.59280 327 ft 10 kts 86°
2026-04-24 20:22 49.43374 -2.59194 328 ft 2 kts 89°
2026-04-24 20:22 49.43374 -2.59146 328 ft 9 kts 90°
2026-04-24 20:22 49.43376 -2.59116 328 ft 2 kts 89°
2026-04-24 20:23 49.43351 -2.59082 328 ft 0 kts 185°